Accueil
METAR-TAF:

METAR-TAF

Aéroports :

Aéroport international de Dallas-Fort Worth

Dallas / Fort Worth, Texas, États-Unis

latitude: 32-53-49N, longitude: 097-01-19W, altitude: 183 m

Observation

Le bulletin a été fait il y a 34 minutes, à 14:53 UTC
Vent 6 kt de est
Température 15°C
Humidité 63%
Pression 1028 hPa
Visibilité: 16.1 km
Quelques nuages à une hauteur de 25000 ft

METAR: KDFW 211453Z 08006KT 10SM FEW250 15/08 A3036 RMK AO2 SLP276 T01500083 53012

Heure: 10:27 (15:27 UTC)

Prévision

Le bulletin a été fait il y a 19 minutes, à 15:08 UTC
Prévision valable du 21 à 15 UTC au 22 à 18 UTC
Vent 8 kt de est
Visibilité: 10 km
Nuages épars à une hauteur de 25000 ft
A partir de 22 à 0300 UTC
Vent 4 kt de sud-est
Visibilité: 10 km
Nuages fragmentés à une hauteur de 25000 ft

TAF: KDFW 211508Z 2115/2218 08008KT P6SM SCT250 FM220300 14004KT P6SM BKN250

Observations et prévisions météorologiques de plus de 4000 aéroports (messages METAR et TAF).

Les stations disponibles sont représentées par des disques jaunes et rouges sur la carte.

Passer la souris dessus pour voir le nom de la station.

Cliquer dessus pour voir les observations et prévisions météorologiques.

Pour changer de carte: cliquez sur les boutons verts avec une croix noire pour zoomer, sur le bouton vert avec un tiret pour effectuer un zoom arrière, ou sur les flèches vertes pour les cartes adjacentes.


METAR-TAF: